createdAt,value
2018-08-23T00:01:48.704Z,70.70
2018-08-23T00:04:29.100Z,71.30
2018-08-23T00:07:04.925Z,71.70
2018-08-23T00:09:40.049Z,71.10
2018-08-23T00:12:11.694Z,71.40
2018-08-23T00:14:41.926Z,71.70
2018-08-23T00:17:18.120Z,72.20
2018-08-23T00:19:48.621Z,72.80
2018-08-23T00:25:09.998Z,73.20
2018-08-23T00:27:43.504Z,73.40
2018-08-23T00:30:15.692Z,73.60
2018-08-23T00:32:46.044Z,73.20
2018-08-23T00:35:23.108Z,73.70
2018-08-23T00:37:54.877Z,73.80
2018-08-23T00:40:26.714Z,73.80
2018-08-23T00:43:04.450Z,74.10
2018-08-23T00:45:37.110Z,74.30
2018-08-23T00:48:09.073Z,74.50
2018-08-23T00:50:59.892Z,74.00
2018-08-23T00:53:33.760Z,74.10
2018-08-23T00:56:21.248Z,74.20
2018-08-23T00:58:57.772Z,74.40
2018-08-23T01:01:30.987Z,74.60
2018-08-23T01:04:04.410Z,74.80
2018-08-23T01:06:48.743Z,75.10
2018-08-23T01:09:21.766Z,74.40
2018-08-23T01:11:55.848Z,74.30
2018-08-23T01:14:27.886Z,74.30
2018-08-23T01:17:11.990Z,73.90
2018-08-23T01:19:49.724Z,75.00
2018-08-23T01:22:22.191Z,75.10
2018-08-23T01:24:51.380Z,75.10
2018-08-23T01:27:27.903Z,75.70
2018-08-23T01:29:56.609Z,76.30
2018-08-23T01:32:32.020Z,76.10
2018-08-23T01:35:00.534Z,76.10
2018-08-23T01:37:42.960Z,76.20
2018-08-23T01:40:12.977Z,76.80
2018-08-23T01:42:45.233Z,77.10
2018-08-23T01:45:13.881Z,77.50
2018-08-23T01:47:48.159Z,77.90
2018-08-23T01:50:17.556Z,78.00
2018-08-23T01:52:48.825Z,78.00
2018-08-23T01:55:18.958Z,78.20
2018-08-23T01:57:48.667Z,78.10
2018-08-23T02:00:19.096Z,78.60
2018-08-23T02:02:48.575Z,78.70
2018-08-23T02:05:17.586Z,78.80
2018-08-23T02:07:46.507Z,79.60
2018-08-23T02:10:15.396Z,79.30
2018-08-23T02:12:51.392Z,79.50
2018-08-23T02:15:20.201Z,79.70
2018-08-23T02:17:58.929Z,79.60
2018-08-23T02:20:29.007Z,79.90
2018-08-23T02:22:58.030Z,80.10
2018-08-23T02:25:28.048Z,80.20
2018-08-23T02:27:59.944Z,80.20
2018-08-23T02:30:40.678Z,80.70
2018-08-23T02:33:11.054Z,80.30
2018-08-23T02:35:40.477Z,81.10
2018-08-23T02:38:09.959Z,80.80
2018-08-23T04:10:27.715Z,81.20
2018-08-23T04:12:59.400Z,82.50
2018-08-23T04:15:32.471Z,82.70
2018-08-23T04:18:07.365Z,83.00
2018-08-23T04:20:41.580Z,83.30
2018-08-23T04:23:14.901Z,83.20
2018-08-23T04:25:47.651Z,83.30
2018-08-23T04:28:20.452Z,83.70
2018-08-23T04:30:52.077Z,83.50
2018-08-23T04:33:22.529Z,83.70
2018-08-23T04:35:56.595Z,84.30
2018-08-23T04:38:28.882Z,84.00
2018-08-23T04:41:06.009Z,84.30
2018-08-23T04:43:38.209Z,84.20
2018-08-23T04:46:14.295Z,84.30
2018-08-23T04:48:49.531Z,84.20
2018-08-23T04:51:22.782Z,83.80
2018-08-23T04:53:54.356Z,84.20
2018-08-23T04:56:24.377Z,84.10
2018-08-23T04:58:57.348Z,84.00
2018-08-23T05:01:26.742Z,83.80
2018-08-23T05:03:57.573Z,83.80
2018-08-23T05:06:26.336Z,83.80
2018-08-23T05:09:06.257Z,83.90
2018-08-23T05:11:41.428Z,83.80
2018-08-23T05:14:14.836Z,83.70
2018-08-23T05:16:52.985Z,83.50
2018-08-23T05:19:26.108Z,82.90
2018-08-23T05:21:56.338Z,82.80
2018-08-23T05:24:25.381Z,82.60
2018-08-23T05:26:57.713Z,82.20
2018-08-23T05:29:30.545Z,82.10
2018-08-23T05:32:03.839Z,82.30
2018-08-23T05:34:35.194Z,81.80
2018-08-23T05:37:09.099Z,81.60
2018-08-23T05:39:50.859Z,81.80
2018-08-23T05:42:31.090Z,80.80
2018-08-23T05:45:02.435Z,81.40
2018-08-23T05:47:34.314Z,81.70
2018-08-23T05:50:05.627Z,81.60
2018-08-23T05:52:39.538Z,81.40
2018-08-23T05:55:11.206Z,82.30
2018-08-23T05:57:40.292Z,81.80
2018-08-23T06:00:12.813Z,81.10
2018-08-23T06:02:43.184Z,81.80
2018-08-23T06:05:14.664Z,81.70
2018-08-23T06:07:46.553Z,81.70
2018-08-23T06:10:17.457Z,81.60
2018-08-23T06:12:51.264Z,80.60
2018-08-23T06:15:22.077Z,79.10
2018-08-23T06:17:52.030Z,79.30
2018-08-23T06:20:22.948Z,79.70
2018-08-23T06:22:53.101Z,78.90
2018-08-23T06:25:24.362Z,78.60
2018-08-23T06:27:55.835Z,78.10
2018-08-23T06:30:25.737Z,77.90
2018-08-23T06:33:05.009Z,78.20
2018-08-23T06:35:34.347Z,77.90
2018-08-23T06:38:03.216Z,77.70
2018-08-23T06:40:31.684Z,77.40
2018-08-23T06:43:02.961Z,77.10
2018-08-23T06:45:31.442Z,76.30
2018-08-23T06:48:01.028Z,75.80
2018-08-23T06:50:29.445Z,75.50
2018-08-23T06:52:57.912Z,75.00
2018-08-23T06:55:31.549Z,75.00
2018-08-23T06:58:02.818Z,74.70
2018-08-23T07:00:31.723Z,74.40
2018-08-23T07:03:00.095Z,74.20
2018-08-23T07:05:28.546Z,74.10
2018-08-23T07:07:56.887Z,74.10
2018-08-23T07:10:25.343Z,74.30
2018-08-23T07:12:56.422Z,73.90
2018-08-23T07:15:25.654Z,73.70
2018-08-23T07:17:54.155Z,72.90
2018-08-23T07:20:22.548Z,73.00
2018-08-23T07:22:50.966Z,73.00
2018-08-23T07:25:19.554Z,72.40
2018-08-23T07:27:47.988Z,72.20
2018-08-23T07:30:18.611Z,72.00
2018-08-23T07:32:48.699Z,71.10
2018-08-23T07:38:07.457Z,71.00
2018-08-23T07:40:36.049Z,70.70
2018-08-23T07:43:05.284Z,70.20
2018-08-23T07:45:34.367Z,70.50
2018-08-23T07:48:03.253Z,70.70
2018-08-23T07:50:32.182Z,69.90
2018-08-23T07:53:01.216Z,69.50
2018-08-23T07:55:30.503Z,69.10
2018-08-23T07:57:58.961Z,68.90
2018-08-23T08:00:32.348Z,68.40
2018-08-23T08:03:02.056Z,67.70
2018-08-23T08:05:32.174Z,67.30
2018-08-23T08:08:00.603Z,67.50
2018-08-23T08:10:34.896Z,66.80
2018-08-23T08:13:03.492Z,66.60
2018-08-23T08:15:31.903Z,66.60
2018-08-23T08:18:08.454Z,65.90
2018-08-23T08:20:37.006Z,65.90
2018-08-23T08:23:06.525Z,65.20
2018-08-23T08:25:34.993Z,65.30
2018-08-23T08:28:04.441Z,63.70
2018-08-23T08:30:41.280Z,63.20
2018-08-23T08:33:11.643Z,63.40
2018-08-23T08:35:52.220Z,63.10
2018-08-23T08:38:20.742Z,63.60
2018-08-23T08:40:52.408Z,62.70
2018-08-23T08:43:20.936Z,63.10
2018-08-23T08:45:53.613Z,61.90
2018-08-23T08:48:26.798Z,61.70
2018-08-23T08:51:11.866Z,62.00
2018-08-23T08:53:41.727Z,60.70
2018-08-23T08:56:11.934Z,60.30
2018-08-23T08:58:42.827Z,60.60
2018-08-23T09:01:12.344Z,60.70
2018-08-23T09:03:40.828Z,59.80
2018-08-23T09:06:10.973Z,59.20
2018-08-23T09:08:39.784Z,59.70
2018-08-23T09:11:08.625Z,58.50
2018-08-23T09:13:42.629Z,58.00
2018-08-23T09:16:14.983Z,57.80
2018-08-23T09:19:00.030Z,57.40
2018-08-23T09:21:39.651Z,58.40
2018-08-23T09:24:24.453Z,57.90
2018-08-23T09:26:53.731Z,57.20
2018-08-23T09:29:33.360Z,56.10
2018-08-23T09:32:43.620Z,56.20
2018-08-23T09:35:13.388Z,56.70
2018-08-23T09:43:02.359Z,56.80
2018-08-23T09:45:35.222Z,55.60
2018-08-23T09:48:03.997Z,55.20
2018-08-23T09:50:32.429Z,55.00
2018-08-23T09:53:00.860Z,53.60
2018-08-23T09:55:32.183Z,53.60
2018-08-23T09:58:00.777Z,53.40
2018-08-23T10:00:34.548Z,52.80
2018-08-23T10:03:08.157Z,52.90
2018-08-23T10:05:47.422Z,53.90
2018-08-23T10:08:21.864Z,53.60
2018-08-23T10:10:55.495Z,52.50
2018-08-23T10:13:29.213Z,52.70
2018-08-23T10:16:03.075Z,52.60
2018-08-23T10:18:36.857Z,51.70
2018-08-23T10:21:05.384Z,51.50
2018-08-23T10:23:34.276Z,51.10
2018-08-23T10:26:08.100Z,50.70
2018-08-23T10:28:41.835Z,50.10
2018-08-23T10:31:10.393Z,49.20
2018-08-23T10:33:38.845Z,50.60
2018-08-23T10:36:07.373Z,50.40
2018-08-23T10:38:35.788Z,49.50
2018-08-23T10:41:05.968Z,49.90
2018-08-23T10:43:40.329Z,50.00
2018-08-23T10:46:08.786Z,47.90
2018-08-23T10:48:40.028Z,47.20
2018-08-23T10:51:08.546Z,46.90
2018-08-23T10:53:37.144Z,47.40
2018-08-23T10:56:05.620Z,48.00
2018-08-23T10:58:34.105Z,46.10
2018-08-23T11:01:02.654Z,46.00
2018-08-23T11:03:31.016Z,45.60
2018-08-23T11:05:59.415Z,44.10
2018-08-23T11:08:31.465Z,44.50
2018-08-23T11:11:05.649Z,42.30
2018-08-23T11:13:40.469Z,44.60
2018-08-23T11:18:54.682Z,43.90
2018-08-23T11:21:23.400Z,42.50
2018-08-23T11:23:51.788Z,42.40
2018-08-23T11:26:21.954Z,43.40
2018-08-23T11:28:50.894Z,45.50
2018-08-23T11:31:24.558Z,43.00
2018-08-23T11:33:53.249Z,45.10
2018-08-23T11:36:21.757Z,45.30
2018-08-23T11:38:51.075Z,44.60
2018-08-23T11:41:20.865Z,43.10
2018-08-23T11:43:51.230Z,42.20
2018-08-23T11:46:21.303Z,41.10
2018-08-23T11:48:50.596Z,40.80
2018-08-23T11:51:20.357Z,40.70
2018-08-23T11:53:49.432Z,40.20
2018-08-23T11:56:18.504Z,38.40
2018-08-23T11:58:46.991Z,34.50
2018-08-23T12:01:16.812Z,33.80
2018-08-23T12:03:45.825Z,32.00
2018-08-23T12:06:16.262Z,31.90
2018-08-23T12:08:45.390Z,31.50
2018-08-23T12:11:14.429Z,31.70
2018-08-23T12:13:47.452Z,30.20
2018-08-23T12:16:15.886Z,29.80
2018-08-23T12:18:44.834Z,29.60
2018-08-23T12:21:13.913Z,29.20
2018-08-23T12:23:42.310Z,28.80
2018-08-23T12:26:10.837Z,28.80
2018-08-23T12:28:44.463Z,28.50
2018-08-23T12:31:14.057Z,27.60
2018-08-23T12:33:43.473Z,27.50
2018-08-23T12:36:12.312Z,28.00
2018-08-23T12:38:46.109Z,27.70
2018-08-23T12:41:19.864Z,28.00
2018-08-23T12:43:50.907Z,29.00
2018-08-23T12:46:20.298Z,28.10
2018-08-23T12:48:53.623Z,27.70
2018-08-23T12:51:22.152Z,27.40
2018-08-23T12:53:50.565Z,27.30
2018-08-23T12:56:19.423Z,26.90
2018-08-23T12:58:48.630Z,26.20
2018-08-23T13:01:17.638Z,25.90
2018-08-23T13:03:46.904Z,25.70
2018-08-23T13:06:15.317Z,25.30
2018-08-23T13:08:43.816Z,25.40
2018-08-23T13:11:14.763Z,25.90
2018-08-23T13:13:43.130Z,26.10
2018-08-23T13:16:11.595Z,27.40
2018-08-23T13:18:41.186Z,28.70
2018-08-23T13:21:10.066Z,29.20
2018-08-23T13:23:42.682Z,29.60
2018-08-23T13:26:11.608Z,30.50
2018-08-23T13:28:41.502Z,32.50
2018-08-23T13:31:09.913Z,31.70
2018-08-23T13:33:38.361Z,31.50
2018-08-23T13:36:06.896Z,31.50
2018-08-23T13:38:36.069Z,28.40
2018-08-23T13:41:05.486Z,28.20
2018-08-23T13:43:34.187Z,28.50
2018-08-23T13:46:02.672Z,28.10
2018-08-23T13:48:31.160Z,27.90
2018-08-23T13:50:59.518Z,26.60
2018-08-23T13:53:28.004Z,24.30
2018-08-23T13:55:57.092Z,23.20
2018-08-23T13:58:25.490Z,23.20
2018-08-23T14:00:54.069Z,22.40
2018-08-23T14:03:22.524Z,23.20
2018-08-23T14:05:51.125Z,23.70
2018-08-23T14:08:19.578Z,24.50
2018-08-23T14:10:48.512Z,25.20
2018-08-23T14:13:17.264Z,25.90
2018-08-23T14:15:51.605Z,27.80
2018-08-23T14:18:20.076Z,28.60
2018-08-23T14:20:49.239Z,29.20
2018-08-23T14:23:18.930Z,30.10
2018-08-23T14:25:49.613Z,30.30
2018-08-23T14:28:18.152Z,31.30
2018-08-23T14:30:46.631Z,31.70
2018-08-23T14:33:16.078Z,32.10
2018-08-23T14:35:44.530Z,32.40
2018-08-23T14:38:15.714Z,33.40
2018-08-23T14:40:45.257Z,33.30
2018-08-23T14:43:13.906Z,33.40
2018-08-23T14:45:44.101Z,33.90
2018-08-23T14:48:15.095Z,34.10
2018-08-23T14:50:44.647Z,34.30
2018-08-23T14:53:17.884Z,34.50
2018-08-23T14:55:51.784Z,34.40
2018-08-23T14:58:20.232Z,34.00
2018-08-23T15:00:48.710Z,34.70
2018-08-23T15:03:18.077Z,35.30
2018-08-23T15:05:46.686Z,35.20
2018-08-23T15:08:16.843Z,35.60
2018-08-23T15:10:45.368Z,36.10
2018-08-23T15:13:14.239Z,35.60
2018-08-23T15:15:48.550Z,35.50
2018-08-23T15:18:20.087Z,35.60
2018-08-23T15:20:48.976Z,36.20
2018-08-23T15:23:18.407Z,35.10
2018-08-23T15:25:48.871Z,34.80
2018-08-23T15:28:19.559Z,35.20
2018-08-23T15:30:48.429Z,34.70
2018-08-23T15:33:16.972Z,34.30
2018-08-23T15:35:45.380Z,35.00
2018-08-23T15:38:14.310Z,35.00
2018-08-23T15:40:42.928Z,35.30
2018-08-23T15:43:11.386Z,36.20
2018-08-23T15:48:19.845Z,36.70
2018-08-23T15:50:48.952Z,37.40
2018-08-23T15:53:17.379Z,37.70
2018-08-23T15:55:46.361Z,38.00
2018-08-23T16:00:59.799Z,38.40
2018-08-23T16:03:28.418Z,38.60
2018-08-23T16:05:59.103Z,38.90
2018-08-23T16:08:27.717Z,39.20
2018-08-23T16:10:56.725Z,39.10
2018-08-23T16:13:25.127Z,39.20
2018-08-23T16:18:07.137Z,38.20
2018-08-23T16:20:40.929Z,38.60
2018-08-23T16:23:10.331Z,38.80
2018-08-23T16:25:41.788Z,39.50
2018-08-23T16:28:10.301Z,39.80
2018-08-23T16:30:42.239Z,40.00
2018-08-23T16:33:11.254Z,40.10
2018-08-23T16:35:39.895Z,40.00
2018-08-23T16:38:08.473Z,40.20
2018-08-23T16:40:37.840Z,39.70
2018-08-23T16:43:06.322Z,38.70
2018-08-23T16:45:34.871Z,39.10
2018-08-23T16:48:03.779Z,39.60
2018-08-23T16:50:32.280Z,39.60
2018-08-23T16:53:00.924Z,39.90
2018-08-23T16:55:29.629Z,40.20
2018-08-23T16:57:58.635Z,41.00
2018-08-23T17:00:27.008Z,41.60
2018-08-23T17:02:55.558Z,41.70
2018-08-23T17:05:25.630Z,42.60
2018-08-23T17:07:54.053Z,43.00
2018-08-23T17:10:23.409Z,43.20
2018-08-23T17:12:52.744Z,43.50
2018-08-23T17:15:22.328Z,43.90
2018-08-23T17:17:55.417Z,44.20
2018-08-23T17:20:23.802Z,44.50
2018-08-23T17:22:52.224Z,44.20
2018-08-23T17:25:21.752Z,44.60
2018-08-23T17:27:52.022Z,44.90
2018-08-23T17:30:21.472Z,45.10
2018-08-23T17:32:49.839Z,45.30
2018-08-23T17:35:21.895Z,45.40
2018-08-23T17:37:50.438Z,45.80
2018-08-23T17:40:21.236Z,46.00
2018-08-23T17:42:49.925Z,46.50
2018-08-23T17:45:18.384Z,46.70
2018-08-23T17:47:50.810Z,46.90
2018-08-23T17:50:20.815Z,47.10
2018-08-23T17:52:50.147Z,47.60
2018-08-23T17:55:18.640Z,48.00
2018-08-23T17:57:49.426Z,48.20
2018-08-23T18:00:20.145Z,48.60
2018-08-23T18:02:49.006Z,48.60
2018-08-23T18:05:18.011Z,49.00
2018-08-23T18:07:46.894Z,49.00
2018-08-23T18:10:15.714Z,49.30
2018-08-23T18:12:46.984Z,49.50
2018-08-23T18:15:15.581Z,49.70
2018-08-23T18:17:44.338Z,50.60
2018-08-23T18:20:15.605Z,51.00
2018-08-23T18:22:44.193Z,50.30
2018-08-23T18:25:13.528Z,50.50
2018-08-23T18:27:44.099Z,50.80
2018-08-23T18:30:13.538Z,50.90
2018-08-23T18:32:44.315Z,51.20
2018-08-23T18:35:12.773Z,51.50
2018-08-23T18:37:42.021Z,51.80
2018-08-23T18:40:11.046Z,52.30
2018-08-23T18:42:40.287Z,52.70
2018-08-23T18:45:10.146Z,53.00
2018-08-23T18:47:39.757Z,53.20
2018-08-23T18:50:21.765Z,52.90
2018-08-23T18:58:43.710Z,53.90
2018-08-23T19:04:09.855Z,54.40
2018-08-23T19:06:43.802Z,54.50
2018-08-23T19:17:28.702Z,54.10
2018-08-23T19:19:59.359Z,54.20
2018-08-23T19:22:29.558Z,54.50
2018-08-23T19:25:02.393Z,56.10
2018-08-23T19:27:32.996Z,57.40
2018-08-23T19:30:01.699Z,58.40
2018-08-23T19:32:31.165Z,59.00
2018-08-23T19:35:06.675Z,59.40
2018-08-23T19:37:35.705Z,59.80
2018-08-23T19:40:11.358Z,60.00
2018-08-23T19:42:44.179Z,60.50
2018-08-23T19:45:13.965Z,61.40
2018-08-23T20:02:01.555Z,65.60
2018-08-23T20:04:33.125Z,69.50
2018-08-23T20:07:02.955Z,69.60
2018-08-23T20:13:15.712Z,72.30
2018-08-23T20:18:37.234Z,69.50
2018-08-23T20:21:10.679Z,68.90
2018-08-23T20:23:43.459Z,69.10
2018-08-23T20:26:12.495Z,73.30
2018-08-23T20:28:43.812Z,71.50
2018-08-23T20:31:19.016Z,72.10
2018-08-23T20:33:50.365Z,72.60
2018-08-23T20:36:21.210Z,73.00
2018-08-23T20:38:52.440Z,74.90
2018-08-23T20:41:23.563Z,75.80
2018-08-23T20:43:55.440Z,77.20
2018-08-23T20:46:27.445Z,77.00
2018-08-23T20:48:59.381Z,78.00
2018-08-23T20:51:30.240Z,78.10
2018-08-23T20:54:02.093Z,78.10
2018-08-23T20:56:30.980Z,78.50
2018-08-23T20:59:05.449Z,78.50
2018-08-23T21:01:39.872Z,78.40
2018-08-23T21:04:14.495Z,78.50
2018-08-23T21:06:44.935Z,78.10
2018-08-23T21:09:17.000Z,77.90
2018-08-23T21:11:49.427Z,78.10
2018-08-23T21:14:18.516Z,78.00
2018-08-23T21:16:47.489Z,77.90
2018-08-23T21:19:23.072Z,77.60
2018-08-23T21:21:51.564Z,77.60
2018-08-23T21:24:21.327Z,77.70
2018-08-23T21:26:55.079Z,77.00
2018-08-23T21:29:25.547Z,76.90
2018-08-23T21:31:54.580Z,77.00
2018-08-23T21:34:23.005Z,77.50
2018-08-23T21:36:53.804Z,77.30
2018-08-23T21:39:23.274Z,77.80
2018-08-23T21:41:53.609Z,77.80
2018-08-23T21:44:23.804Z,77.70
2018-08-23T21:46:52.781Z,77.60
2018-08-23T21:49:25.754Z,77.70
2018-08-23T21:51:54.245Z,77.90
2018-08-23T21:54:22.726Z,78.40
2018-08-23T21:56:52.025Z,79.00
2018-08-23T21:59:21.486Z,79.50
2018-08-23T22:01:55.183Z,80.10
2018-08-23T22:04:27.790Z,80.50
2018-08-23T22:07:02.789Z,80.80
2018-08-23T22:09:34.764Z,80.80
2018-08-23T22:12:07.480Z,80.60
2018-08-23T22:14:45.107Z,80.60
2018-08-23T22:17:17.048Z,80.80
2018-08-23T22:19:46.310Z,80.70
2018-08-23T22:22:17.042Z,80.80
2018-08-23T22:24:49.784Z,80.80
2018-08-23T22:27:19.629Z,80.60
2018-08-23T22:29:49.277Z,80.60
2018-08-23T22:32:18.877Z,80.80
2018-08-23T22:34:49.733Z,80.80
2018-08-23T22:37:24.073Z,81.00
2018-08-23T22:39:53.542Z,81.10
2018-08-23T22:42:34.689Z,81.10
2018-08-23T22:45:03.942Z,80.40
2018-08-23T22:47:38.414Z,80.00
2018-08-23T22:50:09.955Z,80.10
2018-08-23T22:52:39.682Z,79.90
2018-08-23T22:55:08.204Z,80.00
2018-08-23T22:57:39.929Z,80.30
2018-08-23T23:00:10.722Z,80.60
2018-08-23T23:02:40.183Z,80.70
2018-08-23T23:05:09.305Z,81.00
2018-08-23T23:07:38.049Z,81.10
2018-08-23T23:10:08.983Z,81.50
2018-08-23T23:12:37.592Z,81.70
2018-08-23T23:15:11.975Z,82.00
2018-08-23T23:17:44.342Z,82.30
2018-08-23T23:20:13.899Z,82.50
2018-08-23T23:22:43.751Z,82.80
2018-08-23T23:25:16.833Z,82.80
2018-08-23T23:27:48.619Z,83.00
2018-08-23T23:30:21.346Z,83.20
2018-08-23T23:32:52.022Z,83.20
2018-08-23T23:35:21.795Z,83.50
2018-08-23T23:37:52.449Z,83.70
2018-08-23T23:40:26.125Z,83.50
2018-08-23T23:42:59.590Z,83.50
2018-08-23T23:45:29.384Z,83.80
2018-08-23T23:48:01.427Z,83.80
2018-08-23T23:50:33.732Z,83.80
2018-08-23T23:53:05.419Z,84.10
2018-08-23T23:55:38.519Z,84.10
2018-08-23T23:58:10.764Z,84.30
